CheckWX is a tool to help pilots better visualize weather data.  It is not intended as a substitute for an official pre-flight weather briefing.

22:49:53 UTC

KDFW METAR
Dallas-Fort Worth International Airport
Dallas-Fort Worth, Texas, USA
Current

57 mins ago

KDFW 012153Z 15014KT 10SM SCT240 OVC300 22/10 A2987 RMK AO2 SLP110 T02170100
Observed
Apr-1 @ 21:53 UTC
Wind
  • 150° at 14 KTS
Visibility
10 SM
Flight Rules
VFR
Cloud Levels
  • Scattered at 24,000' AGL
  • Overcast at 30,000' AGL
Temperature
22°C / 72°F
Dewpoint
10°C / 50°F
Humidity
47%
Altimeter
29.87" Hg
Pressure
1011.52 hPa
Previous

2 hours ago

KDFW 012053Z 17011G24KT 10SM SCT180 OVC300 22/11 A2989 RMK AO2 SLP117 T02170106 58029
Observed
Apr-1 @ 20:53 UTC
Wind
  • 170° at 11 KTS
  • Gusting to 24 KTS
Visibility
10 SM
Flight Rules
VFR
Cloud Levels
  • Scattered at 18,000' AGL
  • Overcast at 30,000' AGL
Temperature
22°C / 72°F
Dewpoint
11°C / 52°F
Humidity
50%
Altimeter
29.89" Hg
Pressure
1012.22 hPa
Previous

3 hours ago

KDFW 011953Z 17012KT 10SM FEW180 BKN300 21/10 A2992 RMK AO2 SLP126 T02110100
Observed
Apr-1 @ 19:53 UTC
Wind
  • 170° at 12 KTS
Visibility
10 SM
Flight Rules
VFR
Cloud Levels
  • Few at 18,000' AGL
  • Broken at 30,000' AGL
Temperature
21°C / 70°F
Dewpoint
10°C / 50°F
Humidity
50%
Altimeter
29.92" Hg
Pressure
1013.22 hPa